Rosemary Beach, Florida
Current Conditions -  °F | °C
As of 4:53 AM on Monday 20 Oct 2014 (Local Time) from KECP Reporting Station
Clear Clear  
Wind Chill: 55°   Ceiling: Unl
Heat Index: 55°   Visibility: 10mi
Dew Point: 50°   Wind: 3mph
Humidity: 83%   Direction: 20°NNE
Pressure: 30.03"   Gusts: NA
Location:  30.2534°N, 85.9486°W
Report Text: KECP 200953Z AUTO 02003KT 10SM CLR 13/10 A3003 RMK AO2 SLP181 T01280100 $
Loading
Personal Weather Stations






























Interactive Weather Map
Tropical Storm Tracking
New forecast layout! Learn more

10-Day Weather Forecast

Advertisements
Track Severe Weather on mobile